sensor_id;sensor_type;location;lat;lon;timestamp;pressure;altitude;pressure_sealevel;temperature;humidity
51195;BME280;37259;49.972;19.850;2024-02-28T00:00:15;98616.6666666667;;;11.46;74.73
51195;BME280;37259;49.972;19.850;2024-02-28T00:01:15;98616.6666666667;;;11.47;74.86
51195;BME280;37259;49.972;19.850;2024-02-28T00:02:15;98615;;;11.45;75
51195;BME280;37259;49.972;19.850;2024-02-28T00:03:15;98615;;;11.45;74.93
51195;BME280;37259;49.972;19.850;2024-02-28T00:04:15;98616.6666666667;;;11.45;74.91
51195;BME280;37259;49.972;19.850;2024-02-28T00:05:15;98615;;;11.46;74.93
51195;BME280;37259;49.972;19.850;2024-02-28T00:06:15;98616.6666666667;;;11.45;74.9
51195;BME280;37259;49.972;19.850;2024-02-28T00:07:15;98616.6666666667;;;11.46;74.93
51195;BME280;37259;49.972;19.850;2024-02-28T00:08:15;98618.3333333333;;;11.45;74.92
51195;BME280;37259;49.972;19.850;2024-02-28T00:09:15;98618.3333333333;;;11.44;74.92
51195;BME280;37259;49.972;19.850;2024-02-28T00:10:16;98623.3333333333;;;11.42;74.95
51195;BME280;37259;49.972;19.850;2024-02-28T00:11:15;98620;;;11.45;74.97
51195;BME280;37259;49.972;19.850;2024-02-28T00:12:15;98621.6666666667;;;11.42;75.14
51195;BME280;37259;49.972;19.850;2024-02-28T00:13:15;98621.6666666667;;;11.43;75.05
51195;BME280;37259;49.972;19.850;2024-02-28T00:14:15;98620;;;11.43;75
51195;BME280;37259;49.972;19.850;2024-02-28T00:15:15;98626.6666666667;;;11.44;74.95
51195;BME280;37259;49.972;19.850;2024-02-28T00:16:15;98626.6666666667;;;11.42;74.91
51195;BME280;37259;49.972;19.850;2024-02-28T00:17:15;98628.3333333333;;;11.42;75.02
51195;BME280;37259;49.972;19.850;2024-02-28T00:18:15;98630;;;11.4;75.07
51195;BME280;37259;49.972;19.850;2024-02-28T00:19:15;98631.6666666667;;;11.4;75.04
51195;BME280;37259;49.972;19.850;2024-02-28T00:20:15;98628.3333333333;;;11.44;75.11
51195;BME280;37259;49.972;19.850;2024-02-28T00:21:15;98628.3333333333;;;11.42;75.07
51195;BME280;37259;49.972;19.850;2024-02-28T00:22:15;98630;;;11.42;75.04
51195;BME280;37259;49.972;19.850;2024-02-28T00:23:16;98626.6666666667;;;11.41;75.02
51195;BME280;37259;49.972;19.850;2024-02-28T00:24:15;98628.3333333333;;;11.42;75.01
51195;BME280;37259;49.972;19.850;2024-02-28T00:25:16;98628.3333333333;;;11.43;75.04
51195;BME280;37259;49.972;19.850;2024-02-28T00:26:15;98626.6666666667;;;11.39;75.06
51195;BME280;37259;49.972;19.850;2024-02-28T00:27:15;98628.3333333333;;;11.38;75.12
51195;BME280;37259;49.972;19.850;2024-02-28T00:28:15;98625;;;11.36;75.13
51195;BME280;37259;49.972;19.850;2024-02-28T00:29:15;98625;;;11.35;75.16
51195;BME280;37259;49.972;19.850;2024-02-28T00:30:16;98626.6666666667;;;11.35;75.21
51195;BME280;37259;49.972;19.850;2024-02-28T00:31:15;98628.3333333333;;;11.34;75.29
51195;BME280;37259;49.972;19.850;2024-02-28T00:32:15;98628.3333333333;;;11.32;75.36
51195;BME280;37259;49.972;19.850;2024-02-28T00:33:15;98630;;;11.3;75.69
51195;BME280;37259;49.972;19.850;2024-02-28T00:34:15;98630;;;11.29;75.77
51195;BME280;37259;49.972;19.850;2024-02-28T00:35:15;98630;;;11.25;76.03
51195;BME280;37259;49.972;19.850;2024-02-28T00:36:15;98628.3333333333;;;11.24;76.06
51195;BME280;37259;49.972;19.850;2024-02-28T00:37:15;98630;;;11.23;76.01
51195;BME280;37259;49.972;19.850;2024-02-28T00:38:15;98626.6666666667;;;11.23;76
51195;BME280;37259;49.972;19.850;2024-02-28T00:39:15;98628.3333333333;;;11.22;76.16
51195;BME280;37259;49.972;19.850;2024-02-28T00:40:15;98630;;;11.21;76.02
51195;BME280;37259;49.972;19.850;2024-02-28T00:41:16;98628.3333333333;;;11.2;76.19
51195;BME280;37259;49.972;19.850;2024-02-28T00:42:15;98628.3333333333;;;11.2;76.19
51195;BME280;37259;49.972;19.850;2024-02-28T00:43:15;98630;;;11.18;76.12
51195;BME280;37259;49.972;19.850;2024-02-28T00:44:15;98630;;;11.21;76.07
51195;BME280;37259;49.972;19.850;2024-02-28T00:45:15;98626.6666666667;;;11.19;76.12
51195;BME280;37259;49.972;19.850;2024-02-28T00:46:15;98626.6666666667;;;11.18;76.26
51195;BME280;37259;49.972;19.850;2024-02-28T00:47:16;98623.3333333333;;;11.13;76.71
51195;BME280;37259;49.972;19.850;2024-02-28T00:48:15;98625;;;11.04;77.69
51195;BME280;37259;49.972;19.850;2024-02-28T00:49:15;98623.3333333333;;;11.01;77.54
51195;BME280;37259;49.972;19.850;2024-02-28T00:50:15;98623.3333333333;;;10.94;78.03
51195;BME280;37259;49.972;19.850;2024-02-28T00:51:15;98625;;;10.95;77.79
51195;BME280;37259;49.972;19.850;2024-02-28T00:52:15;98625;;;10.92;77.84
51195;BME280;37259;49.972;19.850;2024-02-28T00:53:15;98625;;;10.95;77.66
51195;BME280;37259;49.972;19.850;2024-02-28T00:54:15;98625;;;10.94;77.58
51195;BME280;37259;49.972;19.850;2024-02-28T00:55:15;98625;;;10.94;77.56
51195;BME280;37259;49.972;19.850;2024-02-28T00:56:15;98626.6666666667;;;10.92;77.43
51195;BME280;37259;49.972;19.850;2024-02-28T00:57:15;98631.6666666667;;;10.94;77.38
51195;BME280;37259;49.972;19.850;2024-02-28T00:58:15;98631.6666666667;;;10.91;77.27
51195;BME280;37259;49.972;19.850;2024-02-28T00:59:15;98633.3333333333;;;10.91;77.33
51195;BME280;37259;49.972;19.850;2024-02-28T01:00:16;98635;;;10.91;77.58
51195;BME280;37259;49.972;19.850;2024-02-28T01:01:15;98635;;;10.85;77.55
51195;BME280;37259;49.972;19.850;2024-02-28T01:02:15;98638.3333333333;;;10.81;77.76
51195;BME280;37259;49.972;19.850;2024-02-28T01:03:16;98640;;;10.8;78.07
51195;BME280;37259;49.972;19.850;2024-02-28T01:04:15;98643.3333333333;;;10.75;78.41
51195;BME280;37259;49.972;19.850;2024-02-28T01:05:15;98641.6666666667;;;10.67;78.68
51195;BME280;37259;49.972;19.850;2024-02-28T01:06:15;98643.3333333333;;;10.62;78.94
51195;BME280;37259;49.972;19.850;2024-02-28T01:07:15;98646.6666666667;;;10.55;79.57
51195;BME280;37259;49.972;19.850;2024-02-28T01:08:16;98645;;;10.49;79.74
51195;BME280;37259;49.972;19.850;2024-02-28T01:09:16;98646.6666666667;;;10.53;79.45
51195;BME280;37259;49.972;19.850;2024-02-28T01:10:15;98646.6666666667;;;10.49;79.23
51195;BME280;37259;49.972;19.850;2024-02-28T01:11:15;98645;;;10.49;79.13
51195;BME280;37259;49.972;19.850;2024-02-28T01:12:15;98645;;;10.47;79.04
51195;BME280;37259;49.972;19.850;2024-02-28T01:13:16;98645;;;10.5;78.99
51195;BME280;37259;49.972;19.850;2024-02-28T01:14:15;98645;;;10.48;78.92
51195;BME280;37259;49.972;19.850;2024-02-28T01:15:17;98645;;;10.45;78.9
51195;BME280;37259;49.972;19.850;2024-02-28T01:16:15;98646.6666666667;;;10.48;78.84
51195;BME280;37259;49.972;19.850;2024-02-28T01:17:15;98646.6666666667;;;10.46;78.91
51195;BME280;37259;49.972;19.850;2024-02-28T01:18:15;98645;;;10.43;79.03
51195;BME280;37259;49.972;19.850;2024-02-28T01:19:15;98645;;;10.4;78.9
51195;BME280;37259;49.972;19.850;2024-02-28T01:20:15;98643.3333333333;;;10.45;78.82
51195;BME280;37259;49.972;19.850;2024-02-28T01:21:15;98645;;;10.43;78.77
51195;BME280;37259;49.972;19.850;2024-02-28T01:22:15;98645;;;10.4;78.78
51195;BME280;37259;49.972;19.850;2024-02-28T01:23:15;98640;;;10.41;78.67
51195;BME280;37259;49.972;19.850;2024-02-28T01:24:16;98641.6666666667;;;10.39;78.71
51195;BME280;37259;49.972;19.850;2024-02-28T01:25:15;98641.6666666667;;;10.4;78.71
51195;BME280;37259;49.972;19.850;2024-02-28T01:26:15;98641.6666666667;;;10.39;78.76
51195;BME280;37259;49.972;19.850;2024-02-28T01:27:15;98641.6666666667;;;10.41;78.9
51195;BME280;37259;49.972;19.850;2024-02-28T01:28:15;98643.3333333333;;;10.39;79.06
51195;BME280;37259;49.972;19.850;2024-02-28T01:29:15;98643.3333333333;;;10.42;79.19
51195;BME280;37259;49.972;19.850;2024-02-28T01:30:16;98640;;;10.39;79.27
51195;BME280;37259;49.972;19.850;2024-02-28T01:31:15;98641.6666666667;;;10.4;79.21
51195;BME280;37259;49.972;19.850;2024-02-28T01:32:16;98640;;;10.39;79.22
51195;BME280;37259;49.972;19.850;2024-02-28T01:33:15;98641.6666666667;;;10.41;79.13
51195;BME280;37259;49.972;19.850;2024-02-28T01:34:15;98643.3333333333;;;10.4;79.12
51195;BME280;37259;49.972;19.850;2024-02-28T01:35:15;98646.6666666667;;;10.42;79.04
51195;BME280;37259;49.972;19.850;2024-02-28T01:36:15;98645;;;10.42;78.95
51195;BME280;37259;49.972;19.850;2024-02-28T01:37:15;98640;;;10.4;78.92
51195;BME280;37259;49.972;19.850;2024-02-28T01:38:15;98640;;;10.43;78.95
51195;BME280;37259;49.972;19.850;2024-02-28T01:39:15;98645;;;10.43;78.94
51195;BME280;37259;49.972;19.850;2024-02-28T01:40:15;98641.6666666667;;;10.44;78.87
51195;BME280;37259;49.972;19.850;2024-02-28T01:41:15;98641.6666666667;;;10.48;78.85
51195;BME280;37259;49.972;19.850;2024-02-28T01:42:15;98641.6666666667;;;10.51;78.8
51195;BME280;37259;49.972;19.850;2024-02-28T01:43:15;98638.3333333333;;;10.47;78.79
51195;BME280;37259;49.972;19.850;2024-02-28T01:44:16;98636.6666666667;;;10.47;78.75
51195;BME280;37259;49.972;19.850;2024-02-28T01:45:16;98636.6666666667;;;10.49;78.66
51195;BME280;37259;49.972;19.850;2024-02-28T01:46:20;98636.6666666667;;;10.49;78.64
51195;BME280;37259;49.972;19.850;2024-02-28T01:47:16;98640;;;10.52;78.56
51195;BME280;37259;49.972;19.850;2024-02-28T01:48:16;98635;;;10.49;78.81
51195;BME280;37259;49.972;19.850;2024-02-28T01:49:16;98635;;;10.46;79.04
51195;BME280;37259;49.972;19.850;2024-02-28T01:50:15;98633.3333333333;;;10.48;79.14
51195;BME280;37259;49.972;19.850;2024-02-28T01:51:16;98630;;;10.43;79.27
51195;BME280;37259;49.972;19.850;2024-02-28T01:52:16;98630;;;10.42;79.28
51195;BME280;37259;49.972;19.850;2024-02-28T01:53:15;98626.6666666667;;;10.41;79.36
51195;BME280;37259;49.972;19.850;2024-02-28T01:54:15;98630;;;10.33;80.28
51195;BME280;37259;49.972;19.850;2024-02-28T01:55:16;98628.3333333333;;;10.33;80.18
51195;BME280;37259;49.972;19.850;2024-02-28T01:56:16;98628.3333333333;;;10.35;80.2
51195;BME280;37259;49.972;19.850;2024-02-28T01:57:16;98625;;;10.32;80.07
51195;BME280;37259;49.972;19.850;2024-02-28T01:58:15;98626.6666666667;;;10.34;80.09
51195;BME280;37259;49.972;19.850;2024-02-28T01:59:15;98625;;;10.33;80.44
51195;BME280;37259;49.972;19.850;2024-02-28T02:00:15;98625;;;10.3;80.31
51195;BME280;37259;49.972;19.850;2024-02-28T02:01:16;98626.6666666667;;;10.28;80.33
51195;BME280;37259;49.972;19.850;2024-02-28T02:02:15;98628.3333333333;;;10.28;80.48
51195;BME280;37259;49.972;19.850;2024-02-28T02:03:15;98630;;;10.28;80.51
51195;BME280;37259;49.972;19.850;2024-02-28T02:04:16;98630;;;10.28;80.49
51195;BME280;37259;49.972;19.850;2024-02-28T02:05:15;98631.6666666667;;;10.31;80.41
51195;BME280;37259;49.972;19.850;2024-02-28T02:06:16;98633.3333333333;;;10.3;80.36
51195;BME280;37259;49.972;19.850;2024-02-28T02:07:15;98633.3333333333;;;10.31;80.66
51195;BME280;37259;49.972;19.850;2024-02-28T02:08:15;98630;;;10.29;81.25
51195;BME280;37259;49.972;19.850;2024-02-28T02:09:16;98630;;;10.27;81.72
51195;BME280;37259;49.972;19.850;2024-02-28T02:10:16;98628.3333333333;;;10.2;82.36
51195;BME280;37259;49.972;19.850;2024-02-28T02:11:16;98633.3333333333;;;10.17;82.49
51195;BME280;37259;49.972;19.850;2024-02-28T02:12:15;98631.6666666667;;;10.14;82.63
51195;BME280;37259;49.972;19.850;2024-02-28T02:13:15;98631.6666666667;;;10.12;82.57
51195;BME280;37259;49.972;19.850;2024-02-28T02:14:16;98631.6666666667;;;10.08;82.44
51195;BME280;37259;49.972;19.850;2024-02-28T02:15:15;98630;;;10.12;82.43
51195;BME280;37259;49.972;19.850;2024-02-28T02:16:16;98636.6666666667;;;10.12;82.42
51195;BME280;37259;49.972;19.850;2024-02-28T02:17:16;98636.6666666667;;;10.14;82.27
51195;BME280;37259;49.972;19.850;2024-02-28T02:18:15;98635;;;10.14;82.27
51195;BME280;37259;49.972;19.850;2024-02-28T02:19:16;98636.6666666667;;;10.13;82.26
51195;BME280;37259;49.972;19.850;2024-02-28T02:20:16;98635;;;10.15;82.1
51195;BME280;37259;49.972;19.850;2024-02-28T02:21:17;98635;;;10.13;81.94
51195;BME280;37259;49.972;19.850;2024-02-28T02:22:15;98636.6666666667;;;10.14;81.86
51195;BME280;37259;49.972;19.850;2024-02-28T02:23:16;98636.6666666667;;;10.16;81.79
51195;BME280;37259;49.972;19.850;2024-02-28T02:24:16;98635;;;10.16;81.67
51195;BME280;37259;49.972;19.850;2024-02-28T02:25:15;98635;;;10.17;81.65
51195;BME280;37259;49.972;19.850;2024-02-28T02:26:15;98636.6666666667;;;10.18;81.62
51195;BME280;37259;49.972;19.850;2024-02-28T02:27:16;98633.3333333333;;;10.17;81.59
51195;BME280;37259;49.972;19.850;2024-02-28T02:28:15;98631.6666666667;;;10.12;81.6
51195;BME280;37259;49.972;19.850;2024-02-28T02:29:15;98631.6666666667;;;10.15;81.53
51195;BME280;37259;49.972;19.850;2024-02-28T02:30:16;98631.6666666667;;;10.14;81.59
51195;BME280;37259;49.972;19.850;2024-02-28T02:31:16;98631.6666666667;;;10.13;81.62
51195;BME280;37259;49.972;19.850;2024-02-28T02:32:15;98630;;;10.11;81.64
51195;BME280;37259;49.972;19.850;2024-02-28T02:33:15;98630;;;10.13;81.63
51195;BME280;37259;49.972;19.850;2024-02-28T02:34:15;98630;;;10.12;81.7
51195;BME280;37259;49.972;19.850;2024-02-28T02:35:16;98630;;;10.1;81.75
51195;BME280;37259;49.972;19.850;2024-02-28T02:36:15;98628.3333333333;;;10.08;81.71
51195;BME280;37259;49.972;19.850;2024-02-28T02:37:15;98628.3333333333;;;10.07;81.76
51195;BME280;37259;49.972;19.850;2024-02-28T02:38:15;98630;;;10.07;81.79
51195;BME280;37259;49.972;19.850;2024-02-28T02:39:16;98630;;;10.08;81.74
51195;BME280;37259;49.972;19.850;2024-02-28T02:40:15;98631.6666666667;;;10.06;81.69
51195;BME280;37259;49.972;19.850;2024-02-28T02:41:15;98631.6666666667;;;10.06;81.73
51195;BME280;37259;49.972;19.850;2024-02-28T02:42:15;98628.3333333333;;;10.06;81.66
51195;BME280;37259;49.972;19.850;2024-02-28T02:43:16;98630;;;10.08;81.53
51195;BME280;37259;49.972;19.850;2024-02-28T02:44:16;98628.3333333333;;;10.07;81.59
51195;BME280;37259;49.972;19.850;2024-02-28T02:45:16;98626.6666666667;;;10.05;81.6
51195;BME280;37259;49.972;19.850;2024-02-28T02:46:16;98626.6666666667;;;10.04;81.42
51195;BME280;37259;49.972;19.850;2024-02-28T02:47:16;98623.3333333333;;;10.06;81.54
51195;BME280;37259;49.972;19.850;2024-02-28T02:48:16;98626.6666666667;;;10.04;81.5
51195;BME280;37259;49.972;19.850;2024-02-28T02:49:16;98626.6666666667;;;10.02;82.08
51195;BME280;37259;49.972;19.850;2024-02-28T02:50:15;98626.6666666667;;;9.98;82.19
51195;BME280;37259;49.972;19.850;2024-02-28T02:51:15;98628.3333333333;;;10.01;81.99
51195;BME280;37259;49.972;19.850;2024-02-28T02:52:15;98626.6666666667;;;10.01;81.82
51195;BME280;37259;49.972;19.850;2024-02-28T02:53:15;98628.3333333333;;;9.95;82.3
51195;BME280;37259;49.972;19.850;2024-02-28T02:54:15;98626.6666666667;;;9.93;82.33
51195;BME280;37259;49.972;19.850;2024-02-28T02:55:15;98626.6666666667;;;9.94;82.22
51195;BME280;37259;49.972;19.850;2024-02-28T02:56:15;98626.6666666667;;;9.94;82.2
51195;BME280;37259;49.972;19.850;2024-02-28T02:57:15;98628.3333333333;;;9.95;82.06
51195;BME280;37259;49.972;19.850;2024-02-28T02:58:16;98628.3333333333;;;9.97;82.01
51195;BME280;37259;49.972;19.850;2024-02-28T02:59:15;98628.3333333333;;;9.97;81.9
51195;BME280;37259;49.972;19.850;2024-02-28T03:00:16;98628.3333333333;;;10;81.8
51195;BME280;37259;49.972;19.850;2024-02-28T03:01:16;98628.3333333333;;;9.98;81.8
51195;BME280;37259;49.972;19.850;2024-02-28T03:02:16;98628.3333333333;;;9.98;81.83
51195;BME280;37259;49.972;19.850;2024-02-28T03:03:16;98630;;;9.98;81.75
51195;BME280;37259;49.972;19.850;2024-02-28T03:04:16;98630;;;9.97;81.8
51195;BME280;37259;49.972;19.850;2024-02-28T03:05:15;98631.6666666667;;;9.94;82.21
51195;BME280;37259;49.972;19.850;2024-02-28T03:06:16;98631.6666666667;;;9.92;82.47
51195;BME280;37259;49.972;19.850;2024-02-28T03:07:15;98635;;;9.92;82.51
51195;BME280;37259;49.972;19.850;2024-02-28T03:08:15;98635;;;9.91;82.51
51195;BME280;37259;49.972;19.850;2024-02-28T03:09:15;98633.3333333333;;;9.9;82.53
51195;BME280;37259;49.972;19.850;2024-02-28T03:10:16;98633.3333333333;;;9.89;82.57
51195;BME280;37259;49.972;19.850;2024-02-28T03:11:15;98631.6666666667;;;9.9;82.58
51195;BME280;37259;49.972;19.850;2024-02-28T03:12:15;98630;;;9.91;82.53
51195;BME280;37259;49.972;19.850;2024-02-28T03:13:15;98630;;;9.91;82.47
51195;BME280;37259;49.972;19.850;2024-02-28T03:14:15;98630;;;9.92;82.36
51195;BME280;37259;49.972;19.850;2024-02-28T03:15:15;98635;;;9.93;82.32
51195;BME280;37259;49.972;19.850;2024-02-28T03:16:16;98635;;;9.91;82.57
51195;BME280;37259;49.972;19.850;2024-02-28T03:17:16;98636.6666666667;;;9.82;82.95
51195;BME280;37259;49.972;19.850;2024-02-28T03:18:15;98636.6666666667;;;9.82;82.82
51195;BME280;37259;49.972;19.850;2024-02-28T03:19:16;98638.3333333333;;;9.85;82.72
51195;BME280;37259;49.972;19.850;2024-02-28T03:20:15;98633.3333333333;;;9.89;82.58
51195;BME280;37259;49.972;19.850;2024-02-28T03:21:16;98638.3333333333;;;9.88;82.45
51195;BME280;37259;49.972;19.850;2024-02-28T03:22:16;98635;;;9.89;82.39
51195;BME280;37259;49.972;19.850;2024-02-28T03:23:16;98636.6666666667;;;9.92;82.28
51195;BME280;37259;49.972;19.850;2024-02-28T03:24:16;98636.6666666667;;;9.92;82.24
51195;BME280;37259;49.972;19.850;2024-02-28T03:25:16;98635;;;9.92;82.21
51195;BME280;37259;49.972;19.850;2024-02-28T03:26:16;98640;;;9.94;82.12
51195;BME280;37259;49.972;19.850;2024-02-28T03:27:15;98636.6666666667;;;9.94;82.07
51195;BME280;37259;49.972;19.850;2024-02-28T03:28:15;98640;;;9.94;81.99
51195;BME280;37259;49.972;19.850;2024-02-28T03:29:16;98641.6666666667;;;9.95;81.97
51195;BME280;37259;49.972;19.850;2024-02-28T03:30:16;98640;;;9.97;81.89
51195;BME280;37259;49.972;19.850;2024-02-28T03:31:16;98641.6666666667;;;9.94;81.86
51195;BME280;37259;49.972;19.850;2024-02-28T03:32:16;98643.3333333333;;;9.96;81.83
51195;BME280;37259;49.972;19.850;2024-02-28T03:33:16;98643.3333333333;;;9.97;81.84
51195;BME280;37259;49.972;19.850;2024-02-28T03:34:15;98643.3333333333;;;9.94;81.75
51195;BME280;37259;49.972;19.850;2024-02-28T03:35:16;98643.3333333333;;;9.94;81.73
51195;BME280;37259;49.972;19.850;2024-02-28T03:36:16;98643.3333333333;;;9.92;81.79
51195;BME280;37259;49.972;19.850;2024-02-28T03:37:16;98645;;;9.93;81.83
51195;BME280;37259;49.972;19.850;2024-02-28T03:38:15;98641.6666666667;;;9.93;81.82
51195;BME280;37259;49.972;19.850;2024-02-28T03:39:16;98643.3333333333;;;9.93;81.78
51195;BME280;37259;49.972;19.850;2024-02-28T03:40:15;98648.3333333333;;;9.93;81.8
51195;BME280;37259;49.972;19.850;2024-02-28T03:41:16;98648.3333333333;;;9.96;81.78
51195;BME280;37259;49.972;19.850;2024-02-28T03:42:16;98648.3333333333;;;9.96;81.8
51195;BME280;37259;49.972;19.850;2024-02-28T03:43:15;98650;;;9.96;81.83
51195;BME280;37259;49.972;19.850;2024-02-28T03:44:16;98650;;;9.96;81.95
51195;BME280;37259;49.972;19.850;2024-02-28T03:45:16;98651.6666666667;;;9.98;81.98
51195;BME280;37259;49.972;19.850;2024-02-28T03:46:15;98650;;;9.97;81.99
51195;BME280;37259;49.972;19.850;2024-02-28T03:47:15;98651.6666666667;;;9.99;81.91
51195;BME280;37259;49.972;19.850;2024-02-28T03:48:15;98651.6666666667;;;10.01;81.9
51195;BME280;37259;49.972;19.850;2024-02-28T03:49:15;98651.6666666667;;;10.04;81.91
51195;BME280;37259;49.972;19.850;2024-02-28T03:50:16;98653.3333333333;;;10.04;81.8
51195;BME280;37259;49.972;19.850;2024-02-28T03:51:16;98656.6666666667;;;10.05;81.79
51195;BME280;37259;49.972;19.850;2024-02-28T03:52:16;98658.3333333333;;;10.06;81.77
51195;BME280;37259;49.972;19.850;2024-02-28T03:53:16;98660;;;10.06;81.97
51195;BME280;37259;49.972;19.850;2024-02-28T03:54:16;98661.6666666667;;;10.05;82.02
51195;BME280;37259;49.972;19.850;2024-02-28T03:55:15;98663.3333333333;;;10.02;82.44
51195;BME280;37259;49.972;19.850;2024-02-28T03:56:21;98663.3333333333;;;10.01;82.85
51195;BME280;37259;49.972;19.850;2024-02-28T03:57:16;98665;;;9.98;83.02
51195;BME280;37259;49.972;19.850;2024-02-28T03:58:16;98665;;;10;82.81
51195;BME280;37259;49.972;19.850;2024-02-28T03:59:15;98666.6666666667;;;9.99;82.82
51195;BME280;37259;49.972;19.850;2024-02-28T04:00:16;98665;;;9.97;82.86
51195;BME280;37259;49.972;19.850;2024-02-28T04:01:16;98666.6666666667;;;9.97;83.03
51195;BME280;37259;49.972;19.850;2024-02-28T04:02:16;98666.6666666667;;;9.92;83.42
51195;BME280;37259;49.972;19.850;2024-02-28T04:03:15;98671.6666666667;;;9.92;83.27
51195;BME280;37259;49.972;19.850;2024-02-28T04:04:16;98671.6666666667;;;9.91;83.34
51195;BME280;37259;49.972;19.850;2024-02-28T04:05:16;98671.6666666667;;;9.91;83.44
51195;BME280;37259;49.972;19.850;2024-02-28T04:06:16;98666.6666666667;;;9.92;83.36
51195;BME280;37259;49.972;19.850;2024-02-28T04:07:16;98666.6666666667;;;9.96;83.29
51195;BME280;37259;49.972;19.850;2024-02-28T04:08:15;98666.6666666667;;;9.98;83.14
51195;BME280;37259;49.972;19.850;2024-02-28T04:09:16;98666.6666666667;;;10.01;83.07
51195;BME280;37259;49.972;19.850;2024-02-28T04:10:15;98666.6666666667;;;10;82.9
51195;BME280;37259;49.972;19.850;2024-02-28T04:11:15;98671.6666666667;;;10.02;82.87
51195;BME280;37259;49.972;19.850;2024-02-28T04:12:15;98671.6666666667;;;10.02;82.82
51195;BME280;37259;49.972;19.850;2024-02-28T04:13:16;98671.6666666667;;;10.03;82.8
51195;BME280;37259;49.972;19.850;2024-02-28T04:14:16;98673.3333333333;;;10.03;82.74
51195;BME280;37259;49.972;19.850;2024-02-28T04:15:15;98675;;;10.06;82.63
51195;BME280;37259;49.972;19.850;2024-02-28T04:16:17;98671.6666666667;;;10.08;82.54
51195;BME280;37259;49.972;19.850;2024-02-28T04:17:16;98671.6666666667;;;10.08;82.4
51195;BME280;37259;49.972;19.850;2024-02-28T04:18:16;98670;;;10.07;82.45
51195;BME280;37259;49.972;19.850;2024-02-28T04:19:16;98666.6666666667;;;10.07;82.47
51195;BME280;37259;49.972;19.850;2024-02-28T04:20:16;98666.6666666667;;;10.03;82.65
51195;BME280;37259;49.972;19.850;2024-02-28T04:21:16;98670;;;10.02;82.68
51195;BME280;37259;49.972;19.850;2024-02-28T04:22:16;98665;;;10.07;82.66
51195;BME280;37259;49.972;19.850;2024-02-28T04:23:16;98663.3333333333;;;10.02;82.7
51195;BME280;37259;49.972;19.850;2024-02-28T04:24:16;98661.6666666667;;;10.04;82.71
51195;BME280;37259;49.972;19.850;2024-02-28T04:25:16;98663.3333333333;;;10.01;82.79
51195;BME280;37259;49.972;19.850;2024-02-28T04:26:16;98663.3333333333;;;10.04;82.78
51195;BME280;37259;49.972;19.850;2024-02-28T04:27:16;98665;;;10.05;82.8
51195;BME280;37259;49.972;19.850;2024-02-28T04:28:16;98665;;;10.04;82.68
51195;BME280;37259;49.972;19.850;2024-02-28T04:29:16;98666.6666666667;;;10.07;82.63
51195;BME280;37259;49.972;19.850;2024-02-28T04:30:16;98661.6666666667;;;10.06;82.74
51195;BME280;37259;49.972;19.850;2024-02-28T04:31:15;98663.3333333333;;;9.9;83.39
51195;BME280;37259;49.972;19.850;2024-02-28T04:32:16;98663.3333333333;;;9.85;83.57
51195;BME280;37259;49.972;19.850;2024-02-28T04:33:16;98663.3333333333;;;9.83;83.83
51195;BME280;37259;49.972;19.850;2024-02-28T04:34:16;98663.3333333333;;;9.83;83.76
51195;BME280;37259;49.972;19.850;2024-02-28T04:35:15;98665;;;9.86;83.64
51195;BME280;37259;49.972;19.850;2024-02-28T04:36:16;98661.6666666667;;;9.88;83.5
51195;BME280;37259;49.972;19.850;2024-02-28T04:37:16;98663.3333333333;;;9.87;83.43
51195;BME280;37259;49.972;19.850;2024-02-28T04:38:16;98661.6666666667;;;9.85;83.49
51195;BME280;37259;49.972;19.850;2024-02-28T04:39:15;98661.6666666667;;;9.88;83.48
51195;BME280;37259;49.972;19.850;2024-02-28T04:40:16;98661.6666666667;;;9.9;83.43
51195;BME280;37259;49.972;19.850;2024-02-28T04:41:16;98660;;;9.91;83.34
51195;BME280;37259;49.972;19.850;2024-02-28T04:42:16;98661.6666666667;;;9.88;83.33
51195;BME280;37259;49.972;19.850;2024-02-28T04:43:16;98663.3333333333;;;9.85;83.49
51195;BME280;37259;49.972;19.850;2024-02-28T04:44:16;98661.6666666667;;;9.86;83.51
51195;BME280;37259;49.972;19.850;2024-02-28T04:45:16;98665;;;9.87;83.51
51195;BME280;37259;49.972;19.850;2024-02-28T04:46:16;98661.6666666667;;;9.88;83.52
51195;BME280;37259;49.972;19.850;2024-02-28T04:47:16;98663.3333333333;;;9.84;83.58
51195;BME280;37259;49.972;19.850;2024-02-28T04:48:15;98661.6666666667;;;9.85;83.6
51195;BME280;37259;49.972;19.850;2024-02-28T04:49:16;98661.6666666667;;;9.84;83.6
51195;BME280;37259;49.972;19.850;2024-02-28T04:50:15;98661.6666666667;;;9.89;83.59
51195;BME280;37259;49.972;19.850;2024-02-28T04:51:16;98661.6666666667;;;9.88;83.5
51195;BME280;37259;49.972;19.850;2024-02-28T04:52:16;98661.6666666667;;;9.89;83.5
51195;BME280;37259;49.972;19.850;2024-02-28T04:53:16;98661.6666666667;;;9.89;83.54
51195;BME280;37259;49.972;19.850;2024-02-28T04:54:16;98663.3333333333;;;9.91;83.51
51195;BME280;37259;49.972;19.850;2024-02-28T04:55:16;98661.6666666667;;;9.91;83.41
51195;BME280;37259;49.972;19.850;2024-02-28T04:56:16;98661.6666666667;;;9.93;83.42
51195;BME280;37259;49.972;19.850;2024-02-28T04:57:16;98663.3333333333;;;9.96;83.43
51195;BME280;37259;49.972;19.850;2024-02-28T04:58:16;98661.6666666667;;;10;83.39